This is the latest recevied weather packets stored in our database for station/object SP2NBH-2. If no packets are shown the sender has not sent any weather packets the latest 10 day(s).
| Time | Temp. | Humidity | Pressure | Rain* | Wind** | Luminosity | Snow |
|---|---|---|---|---|---|---|---|
| 1777862369 | 11.11° C | 61% | 1009.6 hPa | - | - | - | - |
| 1777861469 | 11.11° C | 62% | 1009.6 hPa | - | - | - | - |
| 1777860569 | 11.11° C | 62% | 1009.8 hPa | - | - | - | - |
| 1777859669 | 11.11° C | 61% | 1009.8 hPa | - | - | - | - |
| 1777857974 | 11.67° C | 60% | 1010 hPa | - | - | - | - |
| 1777857074 | 12.22° C | 59% | 1010.1 hPa | - | - | - | - |
| 1777856174 | 11.67° C | 62% | 1010.3 hPa | - | - | - | - |
| 1777855273 | 11.67° C | 63% | 1010.4 hPa | - | - | - | - |
| 1777854374 | 11.67° C | 61% | 1010.5 hPa | - | - | - | - |
| 1777853464 | 11.67° C | 60% | 1010.4 hPa | - | - | - | - |
| 1777852596 | 12.22° C | 56% | 1010.6 hPa | - | - | - | - |
| 1777852563 | 12.22° C | 56% | 1010.6 hPa | - | - | - | - |
| 1777851696 | 12.22° C | 56% | 1010.8 hPa | - | - | - | - |
| 1777851663 | 12.22° C | 56% | 1010.8 hPa | - | - | - | - |
| 1777849865 | 12.78° C | 55% | 1010.9 hPa | - | - | - | - |
| 1777848965 | 12.78° C | 54% | 1011.1 hPa | - | - | - | - |
| 1777848098 | 13.33° C | 55% | 1011.1 hPa | - | - | - | - |
| 1777848065 | 13.33° C | 55% | 1011.1 hPa | - | - | - | - |
| 1777847165 | 13.89° C | 51% | 1011.2 hPa | - | - | - | - |
| 1777846265 | 14.44° C | 50% | 1011.6 hPa | - | - | - | - |
| 1777845365 | 14.44° C | 50% | 1011.9 hPa | - | - | - | - |
| 1777844465 | 14.44° C | 50% | 1012 hPa | - | - | - | - |
| 1777843565 | 13.33° C | 54% | 1011.9 hPa | - | - | - | - |
| 1777842665 | 13.89° C | 52% | 1011.7 hPa | - | - | - | - |
| 1777841798 | 13.33° C | 53% | 1011.8 hPa | - | - | - | - |
* Rain since midnight (hover to see other rain measurements)
** Current wind speed in m/s (hover to see current wind gust speed)